AirNav   Duncan Aviation - Near you to keep you flying
 
 370 users online  

LA24 St Tammany Parish Hospital Heliport
Covington, Louisiana, USA

GOING TO COVINGTON?


FAA INFORMATION EFFECTIVE 08 SEPTEMBER 2022

Location

FAA Identifier: LA24
Lat/Long: 30-28-02.2000N 090-06-47.0000W
30-28.036667N 090-06.783333W
30.4672778,-90.1130556
(estimated)
Elevation: 18 ft. / 5 m (estimated)
Variation: 01E (2000)
Time zone: UTC -5 (UTC -6 during Standard Time)
Zip code: 70433

Heliport Operations

Heliport use: Private use, MEDICAL.
Activation date: 11/2000
Control tower: no
ARTCC: HOUSTON CENTER
FSS: DE RIDDER FLIGHT SERVICE STATION
Attendance: UNATNDD
Wind indicator: lighted
Segmented circle: no
Lights: SS-SR

Heliport Communications

WX AWOS-3PT at HDC (16 nm W): PHONE 985-277-5670
WX ASOS at ASD (17 nm SE): 132.475 (985-643-7263)

Nearby radio navigation aids

VOR radial/distance  VOR name  Freq  Var
PCUr249/20.6PICAYUNE VOR/DME113.9505E
RQRr045/33.6RESERVE VOR/DME110.8002E
HRVr349/37.5HARVEY VORTAC114.1002E

 
NDB name  Hdg/Dist  Freq  Var  ID
BOGALUSA208/28.035300WGVB --. ...- -...

Heliport Services

Runway Information

Helipad H1

Dimensions: 50 x 50 ft. / 15 x 15 m
Surface: concrete
Runway edge lights: PERI
Latitude: 30-28.036667N
Longitude: 090-06.783333W
Elevation: 18.0 ft.
Traffic pattern: leftleft

Heliport Ownership and Management from official FAA records

Ownership: Privately-owned
Owner: ST TAMMANY PARISH HOSPITAL
1202 SOUTH TYLER STREET
COVINGTON, LA 70433
Phone 985-898-4402
Manager: RICHARD GALLAHER
1202 SOUTH TYLER STREET
COVINGTON, LA 70433
Phone 985-898-4418

Additional Remarks

A52-H1 80 FT TREES 420 FT SW; 75 FT ANT 650 FT NORTH & 70 FT TREES 60 FT SE OF HELIPAD.
FOR CD CTC NEW ORLEANS APCH AT 504-471-4350.

Instrument Procedures

There are no published instrument procedures at LA24.

Some nearby airports with instrument procedures:

KHDC - Hammond Northshore Regional Airport (16 nm W)
KASD - Slidell Airport (17 nm SE)
KMJD - Picayune Municipal Airport (24 nm E)
KBXA - George R Carr Memorial Air Field (24 nm NE)
KNEW - Lakefront Airport (26 nm S)
 
Loc | Ops | Rwys | IFR | FBO | Links
Com | Nav | Svcs | Stats | Notes
Area around LA24 (St Tammany Parish Hospital Heliport)
 
Road maps at: MapQuest Bing Google
 
Aerial photo
No photo
 
Sectional chart

 
Airport distance calculator
Flying to St Tammany Parish Hospital Heliport? Find the distance to fly.

From to LA24

Sunrise and sunset
Times for 02-Oct-2022
 Local
(UTC-5)
 Zulu
(UTC)
Morning civil twilight06:3211:32
Sunrise06:5611:56
Sunset18:4423:44
Evening civil twilight19:0800:08

Current date and time
Zulu (UTC)  02-Oct-2022 08:44:30
Local (UTC-5)  02-Oct-2022 03:44:30
 
METAR
KHDC 
16nm W 
020818Z AUTO 00000KT 10SM CLR 12/10 A3004 RMK AO2
KASD 
22nm SE 
020753Z AUTO 00000KT 10SM CLR 11/09 A3003 RMK AO2 SLP167 T01110094
KMJD 
24nm E 
020835Z AUTO 00000KT 7SM CLR 10/10 A3001 RMK AO2
KBXA 
24nm NE 
020835Z AUTO 00000KT 10SM CLR 10/09 A3004 RMK AO2 T00990085
KNEW 
25nm S 
020753Z AUTO 04013KT 10SM CLR 22/13 A3003 RMK AO2 SLP163 T02170128
KMSY 
29nm S 
020753Z 02003KT 10SM CLR 21/13 A3003 RMK AO2 SLP171 T02060133
K7N0 
31nm S 
020756Z AUTO VRB03KT 10SM CLR 21/12 A3004 RMK AO2 SLP171 T02060122 PNO $
TAF
KHDC 
16nm W 
020521Z 0206/0306 00000KT P6SM SKC FM021600 35006KT P6SM SKC FM022300 00000KT P6SM SKC
NOTAMs
Click for the latest NOTAMs
NOTAMs are issued by the DoD/FAA and will open in a separate window not controlled by AirNav.

 

 
 

Would you like to see your business listed on this page?

 If your business provides an interesting product or service to pilots, flight crews, aircraft, or users of the St Tammany Parish Hospital Heliport, you should consider listing it here.  To start the listing process, click on the button below
 
Add a business
 

Other Pages about St Tammany Parish Hospital Heliport

Update a link
 
Copyright © AirNav, LLC. All rights reserved. Privacy Policy  Contact